Time;durP1;ratioP1;P1;durP2;ratioP2;P2;SDS_P1;SDS_P2;PMS_P1;PMS_P2;Temp;Humidity;BMP_temperature;BMP_pressure;BME280_temperature;BME280_humidity;BME280_pressure;Samples;Min_cycle;Max_cycle;Signal;HPM_P1;HPM_P2
2022/03/31 00:02:21;;;;;;;0.60;0.60;;;9.40;99.90;9.60;99862.00;;;;5027475;28;20183;-66
2022/03/31 00:04:52;;;;;;;1.03;1.03;;;9.70;99.90;8.80;99887.00;;;;5027289;28;20324;-66
2022/03/31 00:07:23;;;;;;;1.73;1.30;;;9.60;99.90;9.00;99896.00;;;;5027973;28;20176;-66
2022/03/31 00:09:55;;;;;;;0.60;0.60;;;9.40;99.90;8.30;99890.00;;;;5027831;28;20160;-65
2022/03/31 00:12:28;;;;;;;0.97;0.87;;;9.10;99.90;8.20;99896.00;;;;5012919;28;20191;-65
2022/03/31 00:14:55;;;;;;;1.17;1.17;;;8.90;99.90;8.50;99884.00;;;;5027869;28;20212;-66
2022/03/31 00:17:27;;;;;;;0.67;0.67;;;8.90;99.90;8.30;99893.00;;;;5027673;28;20186;-66
2022/03/31 00:19:58;;;;;;;0.40;0.40;;;8.80;99.90;8.70;99900.00;;;;5027795;28;20187;-66
2022/03/31 00:22:29;;;;;;;0.60;0.60;;;9.00;99.90;9.00;99904.00;;;;5011273;28;20184;-66
2022/03/31 00:25:00;;;;;;;0.40;0.40;;;9.20;99.90;9.50;99900.00;;;;5055032;28;20175;-65
2022/03/31 00:27:35;;;;;;;1.13;1.13;;;9.50;99.90;8.90;99904.00;;;;5114390;28;20598;-66
2022/03/31 00:30:09;;;;;;;2.07;1.97;;;9.50;99.90;8.80;99901.00;;;;5114411;28;20710;-65
2022/03/31 00:32:41;;;;;;;0.40;0.40;;;9.40;99.90;8.60;99890.00;;;;5114826;28;20297;-65
2022/03/31 00:35:13;;;;;;;0.73;0.73;;;9.20;99.90;8.20;99900.00;;;;5114359;28;20184;-65
2022/03/31 00:37:48;;;;;;;0.43;0.43;;;8.90;99.90;8.40;99892.00;;;;5114459;28;20627;-65
2022/03/31 00:40:21;;;;;;;0.57;0.57;;;9.00;99.90;8.60;99896.00;;;;5114522;27;20282;-65
2022/03/31 00:42:54;;;;;;;0.83;0.83;;;9.10;99.90;8.30;99902.00;;;;5114555;28;20187;-65
2022/03/31 00:45:51;;;;;;;0.40;0.40;;;9.00;99.90;8.40;99880.00;;;;5114054;28;20188;-65
2022/03/31 00:48:23;;;;;;;0.93;0.93;;;8.90;99.90;8.50;99909.00;;;;5114710;28;20165;-66
2022/03/31 00:50:54;;;;;;;0.70;0.70;;;9.00;99.90;8.50;99905.00;;;;5131104;27;20599;-65
2022/03/31 00:53:25;;;;;;;0.60;0.60;;;9.00;99.90;8.00;99845.00;;;;5131401;27;20176;-65
2022/03/31 00:55:59;;;;;;;0.40;0.40;;;8.80;99.90;7.70;99876.00;;;;5113282;28;20187;-65
2022/03/31 00:58:31;;;;;;;0.40;0.40;;;8.50;99.90;7.80;99889.00;;;;5114127;28;20259;-65
2022/03/31 01:00:57;;;;;;;0.50;0.50;;;8.50;99.90;8.00;99885.00;;;;5113522;28;20204;-65
2022/03/31 01:03:29;;;;;;;1.17;1.17;;;8.60;99.90;8.40;99907.00;;;;5131546;27;20269;-65
2022/03/31 01:06:00;;;;;;;1.00;0.90;;;8.70;99.90;7.80;99897.00;;;;5113898;28;20206;-64
2022/03/31 01:08:32;;;;;;;0.67;0.67;;;8.60;99.90;7.60;99885.00;;;;5113933;28;20180;-64
2022/03/31 01:11:03;;;;;;;2.03;1.83;;;8.40;99.90;8.20;99894.00;;;;5114902;28;20175;-64
2022/03/31 01:13:32;;;;;;;0.40;0.40;;;8.50;99.90;8.20;99898.00;;;;5113481;28;20202;-64
2022/03/31 01:16:04;;;;;;;1.60;1.50;;;8.60;99.90;7.60;99887.00;;;;5113486;28;20172;-65
2022/03/31 01:18:37;;;;;;;1.03;1.00;;;8.50;99.90;7.40;99871.00;;;;5114107;28;20195;-65
2022/03/31 01:21:11;;;;;;;2.30;2.10;;;8.20;99.90;7.00;99867.00;;;;5113571;28;20219;-64
2022/03/31 01:23:40;;;;;;;1.40;0.83;;;8.00;99.90;7.40;99887.00;;;;5113153;28;20174;-64
2022/03/31 01:26:10;;;;;;;1.13;1.00;;;8.00;99.90;7.80;99885.00;;;;5113470;28;20171;-64
2022/03/31 01:28:45;;;;;;;0.40;0.40;;;8.20;99.90;7.00;99880.00;;;;5113501;28;20179;-65
2022/03/31 01:31:14;;;;;;;2.00;1.43;;;8.00;99.90;6.80;99870.00;;;;5113014;28;20217;-66
2022/03/31 01:33:41;;;;;;;0.30;0.30;;;7.80;99.90;6.90;99834.00;;;;5114892;27;20179;-66
2022/03/31 01:36:14;;;;;;;1.07;0.70;;;7.70;99.90;6.30;99882.00;;;;5113384;28;20179;-65
2022/03/31 01:38:40;;;;;;;0.93;0.77;;;7.30;99.90;6.60;99858.00;;;;5113311;28;20178;-65
2022/03/31 01:41:07;;;;;;;0.40;0.30;;;7.30;99.90;6.70;99835.00;;;;5113188;28;20183;-65
2022/03/31 01:43:36;;;;;;;2.00;0.73;;;7.30;99.90;5.90;99880.00;;;;5129478;27;20195;-65
2022/03/31 01:46:08;;;;;;;1.23;1.13;;;7.00;99.90;6.00;99879.00;;;;5112877;28;20185;-65
2022/03/31 01:48:39;;;;;;;0.30;0.30;;;6.90;99.90;5.80;99887.00;;;;5112976;28;20205;-66
2022/03/31 01:51:12;;;;;;;0.87;0.73;;;6.70;99.90;5.50;99891.00;;;;5113070;28;20185;-65
2022/03/31 01:53:43;;;;;;;0.60;0.60;;;6.70;99.90;5.80;99901.00;;;;5112986;28;20157;-65
2022/03/31 01:56:14;;;;;;;2.63;1.93;;;6.70;99.90;5.60;99893.00;;;;5057479;28;20673;-65
2022/03/31 01:58:45;;;;;;;1.47;1.07;;;6.50;99.90;5.80;99893.00;;;;5029224;28;20180;-65
2022/03/31 02:01:14;;;;;;;6.23;1.23;;;6.60;99.90;5.30;99890.00;;;;5046003;28;20192;-65
2022/03/31 02:03:45;;;;;;;1.73;1.57;;;6.30;99.90;5.00;99848.00;;;;5029551;28;20176;-65
2022/03/31 02:06:16;;;;;;;1.43;1.37;;;6.10;99.90;4.80;99889.00;;;;5030077;28;20630;-65
2022/03/31 02:08:47;;;;;;;3.50;1.30;;;6.00;99.90;4.70;99851.00;;;;5030516;28;20175;-65
2022/03/31 02:11:18;;;;;;;1.03;0.93;;;5.70;99.90;4.70;99869.00;;;;5029684;28;20289;-65
2022/03/31 02:13:52;;;;;;;1.17;0.80;;;5.70;99.90;5.00;99913.00;;;;5012735;28;20187;-65
2022/03/31 02:16:21;;;;;;;0.50;0.50;;;5.70;99.90;5.10;99911.00;;;;5029727;28;20174;-65
2022/03/31 02:18:47;;;;;;;1.73;1.63;;;5.80;99.90;4.90;99906.00;;;;5029297;28;20181;-65
2022/03/31 02:21:18;;;;;;;0.73;0.73;;;5.80;99.90;4.70;99906.00;;;;5046046;28;20555;-65
2022/03/31 02:23:52;;;;;;;0.57;0.57;;;5.60;99.90;4.60;99911.00;;;;5029245;28;20178;-65
2022/03/31 02:26:24;;;;;;;2.13;1.93;;;5.50;99.90;4.50;99910.00;;;;5028771;28;20181;-65
2022/03/31 02:28:55;;;;;;;0.73;0.57;;;5.40;99.90;5.00;99869.00;;;;5013150;28;20186;-65
2022/03/31 02:31:21;;;;;;;0.93;0.93;;;5.60;99.90;4.20;99913.00;;;;5029088;28;20680;-67
2022/03/31 02:33:52;;;;;;;1.30;0.93;;;5.40;99.90;4.40;99908.00;;;;5029173;28;20261;-65
2022/03/31 02:36:22;;;;;;;1.13;1.03;;;5.30;99.90;4.20;99870.00;;;;5029216;28;20250;-65
2022/03/31 02:38:48;;;;;;;1.03;0.93;;;5.10;99.90;3.90;99889.00;;;;5029017;28;20522;-65
2022/03/31 02:41:20;;;;;;;1.33;0.97;;;5.00;99.90;3.80;99841.00;;;;5028804;28;20652;-65
2022/03/31 02:43:52;;;;;;;0.87;0.83;;;4.90;99.90;4.00;99899.00;;;;5029339;28;20178;-66
2022/03/31 02:46:25;;;;;;;0.50;0.50;;;4.90;99.90;3.90;99903.00;;;;5029167;28;20190;-65
2022/03/31 02:48:54;;;;;;;0.70;0.70;;;4.90;99.90;4.00;99888.00;;;;5012778;28;20183;-65
2022/03/31 02:51:21;;;;;;;0.60;0.60;;;4.90;99.90;3.70;99854.00;;;;5028978;28;20198;-66
2022/03/31 02:56:38;;;;;;;0.90;0.90;;;4.70;99.90;3.40;99906.00;;;;5028353;28;20186;-65
2022/03/31 02:59:12;;;;;;;0.30;0.30;;;4.50;99.90;3.20;99919.00;;;;5027687;28;20177;-65
2022/03/31 03:01:42;;;;;;;0.70;0.70;;;4.30;99.90;2.80;99914.00;;;;5028713;28;20191;-65
2022/03/31 03:04:15;;;;;;;0.40;0.40;;;4.00;99.90;2.80;99902.00;;;;5028024;28;20533;-64
2022/03/31 03:06:49;;;;;;;1.40;1.10;;;3.80;99.90;2.50;99917.00;;;;5028589;28;20179;-65
2022/03/31 03:09:20;;;;;;;1.00;1.00;;;3.70;99.90;2.70;99921.00;;;;5030235;28;20183;-65
2022/03/31 03:11:51;;;;;;;1.17;1.17;;;3.60;99.90;2.60;99904.00;;;;5029749;28;20202;-64
2022/03/31 03:14:22;;;;;;;0.40;0.40;;;3.60;99.90;2.70;99926.00;;;;5029543;28;20179;-64
2022/03/31 03:16:54;;;;;;;0.40;0.40;;;3.60;99.90;3.00;99922.00;;;;5029712;28;20261;-65
2022/03/31 03:19:25;;;;;;;1.23;1.13;;;3.80;99.90;2.90;99900.00;;;;5031017;28;20604;-65
2022/03/31 03:21:56;;;;;;;0.70;0.70;;;3.80;99.90;3.20;99908.00;;;;5015525;28;20216;-65
2022/03/31 03:24:27;;;;;;;0.67;0.67;;;3.90;99.90;2.70;99920.00;;;;5031525;28;20179;-64
2022/03/31 03:26:59;;;;;;;0.97;0.93;;;3.80;99.90;2.90;99916.00;;;;5032037;28;20200;-64
2022/03/31 03:29:33;;;;;;;0.77;0.77;;;3.70;99.90;2.70;99934.00;;;;5031915;28;20179;-65
2022/03/31 03:32:05;;;;;;;0.30;0.30;;;3.70;99.90;2.90;99940.00;;;;5032672;28;20214;-64
2022/03/31 03:34:39;;;;;;;0.50;0.50;;;3.70;99.90;2.70;99887.00;;;;5032760;28;20183;-65
2022/03/31 03:37:10;;;;;;;0.67;0.67;;;3.70;99.90;2.80;99929.00;;;;5031649;28;20195;-64
2022/03/31 03:39:42;;;;;;;0.80;0.80;;;3.70;99.90;2.80;99930.00;;;;5014915;28;20183;-65
2022/03/31 03:42:17;;;;;;;0.40;0.40;;;3.80;99.90;2.80;99929.00;;;;5031747;28;20175;-65
2022/03/31 03:44:48;;;;;;;0.30;0.30;;;3.70;99.90;3.00;99938.00;;;;5015218;28;20690;-65
2022/03/31 03:47:19;;;;;;;0.77;0.60;;;3.80;99.90;2.40;99942.00;;;;5031240;28;20297;-65
2022/03/31 03:49:51;;;;;;;0.40;0.40;;;3.50;99.90;2.90;99927.00;;;;5031544;28;20232;-64
2022/03/31 03:52:23;;;;;;;0.30;0.30;;;3.60;99.90;2.70;99906.00;;;;5032713;28;20203;-64
2022/03/31 03:54:55;;;;;;;0.50;0.50;;;3.50;99.90;2.90;99947.00;;;;5031378;28;20187;-64
2022/03/31 03:57:26;;;;;;;0.50;0.50;;;3.60;99.90;2.20;99941.00;;;;5032827;28;20183;-63
2022/03/31 03:59:57;;;;;;;0.40;0.40;;;3.30;99.90;2.10;99945.00;;;;5031693;28;20175;-64
2022/03/31 04:02:28;;;;;;;1.50;1.33;;;3.20;99.90;1.90;99955.00;;;;5032689;28;20191;-63
2022/03/31 04:04:56;;;;;;;0.70;0.70;;;3.10;99.90;2.30;99947.00;;;;5031373;28;20181;-63
2022/03/31 04:07:27;;;;;;;0.47;0.40;;;3.20;99.90;2.30;99938.00;;;;5032237;28;20233;-63
2022/03/31 04:09:58;;;;;;;0.40;0.40;;;3.20;99.90;2.40;99949.00;;;;5032298;28;20197;-65
2022/03/31 04:12:29;;;;;;;0.60;0.57;;;3.30;99.90;2.40;99946.00;;;;5032673;28;20660;-64
2022/03/31 04:15:02;;;;;;;0.50;0.50;;;3.30;99.90;2.60;99944.00;;;;5031338;28;20240;-64
2022/03/31 04:17:34;;;;;;;0.50;0.50;;;3.40;99.90;2.50;99944.00;;;;5032198;28;20261;-64
2022/03/31 04:20:09;;;;;;;0.90;0.90;;;3.40;99.90;2.30;99937.00;;;;5032354;28;20179;-64
2022/03/31 04:22:41;;;;;;;1.03;0.93;;;3.40;99.90;2.10;99935.00;;;;5031018;28;20178;-64
2022/03/31 04:25:13;;;;;;;1.10;1.10;;;3.20;99.90;2.20;99946.00;;;;5031838;28;20187;-63
2022/03/31 04:27:45;;;;;;;6.30;1.40;;;3.20;99.90;2.20;99887.00;;;;5032072;28;20197;-64
2022/03/31 04:30:20;;;;;;;1.67;1.57;;;3.20;99.90;2.30;99929.00;;;;5030553;28;20269;-64
2022/03/31 04:32:52;;;;;;;1.70;1.60;;;3.30;99.90;2.30;99940.00;;;;5030651;28;20733;-64
2022/03/31 04:35:20;;;;;;;1.23;1.23;;;3.30;99.90;2.40;99928.00;;;;5031813;28;20175;-65
2022/03/31 04:37:52;;;;;;;1.33;1.23;;;3.30;99.90;2.50;99937.00;;;;5014275;28;20174;-65
2022/03/31 04:40:23;;;;;;;3.17;2.43;;;3.40;99.90;2.40;99870.00;;;;5031138;28;20269;-64
2022/03/31 04:42:54;;;;;;;1.20;1.10;;;3.30;99.90;2.40;99933.00;;;;5030939;28;20641;-64
2022/03/31 04:45:23;;;;;;;0.90;0.90;;;3.30;99.90;2.30;99890.00;;;;5031938;28;20189;-64
2022/03/31 04:47:54;;;;;;;0.77;0.77;;;3.30;99.90;2.60;99925.00;;;;5030751;28;20200;-64
2022/03/31 04:50:26;;;;;;;1.27;1.17;;;3.40;99.90;2.50;99918.00;;;;5014054;28;20571;-64
2022/03/31 04:52:57;;;;;;;0.70;0.70;;;3.40;99.90;2.60;99935.00;;;;5031456;28;20574;-64
2022/03/31 04:55:31;;;;;;;0.83;0.83;;;3.40;99.90;2.60;99930.00;;;;5031481;28;20175;-64
2022/03/31 04:58:02;;;;;;;0.93;0.93;;;3.50;99.90;2.60;99929.00;;;;5030567;28;20167;-64
2022/03/31 05:00:33;;;;;;;1.73;1.17;;;3.50;99.90;2.60;99926.00;;;;5030300;28;20633;-64
2022/03/31 05:03:05;;;;;;;1.87;1.77;;;3.50;99.90;2.50;99924.00;;;;5013894;28;20202;-64
2022/03/31 05:05:38;;;;;;;1.70;1.60;;;3.50;99.90;2.50;99906.00;;;;5029755;28;20698;-64
2022/03/31 05:08:10;;;;;;;2.27;2.07;;;3.50;99.90;2.60;99915.00;;;;5031350;28;20542;-64
2022/03/31 05:10:45;;;;;;;1.10;0.90;;;3.50;99.90;2.50;99920.00;;;;5031536;28;20179;-64
2022/03/31 05:13:17;;;;;;;2.00;1.90;;;3.50;99.90;2.60;99912.00;;;;5030276;28;20225;-64
2022/03/31 05:15:48;;;;;;;2.17;1.97;;;3.50;99.90;2.70;99929.00;;;;5031795;28;20255;-64
2022/03/31 05:18:19;;;;;;;0.70;0.70;;;3.50;99.90;2.70;99929.00;;;;5031759;28;20171;-64
2022/03/31 05:20:50;;;;;;;1.87;1.70;;;3.60;99.90;2.70;99920.00;;;;5030135;28;20190;-64
2022/03/31 05:23:21;;;;;;;0.80;0.80;;;3.60;99.90;2.60;99909.00;;;;5030315;28;20163;-66
2022/03/31 05:25:53;;;;;;;1.43;1.33;;;3.60;99.90;2.60;99921.00;;;;5012606;28;20187;-64
2022/03/31 05:28:26;;;;;;;1.50;1.40;;;3.60;99.90;2.60;99905.00;;;;5010420;28;20172;-63
2022/03/31 05:30:58;;;;;;;1.17;1.07;;;3.60;99.90;3.00;99916.00;;;;5009911;28;20571;-64
2022/03/31 05:33:30;;;;;;;0.37;0.37;;;3.70;99.90;2.80;99931.00;;;;5010175;28;20211;-64
2022/03/31 05:36:01;;;;;;;0.53;0.53;;;3.80;99.90;3.30;99934.00;;;;5011165;28;20211;-64
2022/03/31 05:38:32;;;;;;;1.03;1.00;;;3.90;99.90;2.90;99922.00;;;;5010290;28;20222;-64
2022/03/31 05:42:19;;;;;;;1.50;1.30;;;3.80;99.90;2.60;99925.00;;;;5009754;28;20578;-63
2022/03/31 05:44:50;;;;;;;0.70;0.70;;;3.70;99.90;2.50;99862.00;;;;5011332;28;20187;-64
2022/03/31 05:47:20;;;;;;;0.77;0.77;;;3.60;99.90;2.80;99867.00;;;;5009767;28;20183;-64
2022/03/31 05:49:53;;;;;;;0.93;0.93;;;3.60;99.90;2.60;99918.00;;;;5011089;28;20178;-64
2022/03/31 05:52:24;;;;;;;0.83;0.83;;;3.60;99.90;2.80;99935.00;;;;5009814;28;20240;-64
2022/03/31 05:54:55;;;;;;;0.30;0.30;;;3.60;99.90;2.70;99931.00;;;;5011605;28;20183;-64
2022/03/31 05:57:27;;;;;;;1.33;1.23;;;3.60;99.90;2.90;99903.00;;;;5010032;28;20225;-64
2022/03/31 05:59:58;;;;;;;0.50;0.50;;;3.70;99.90;2.90;99939.00;;;;5079011;28;20179;-64
2022/03/31 06:02:32;;;;;;;0.80;0.80;;;3.80;99.90;2.80;99923.00;;;;5009316;28;20282;-64
2022/03/31 06:05:01;;;;;;;0.67;0.67;;;3.80;99.90;2.80;99928.00;;;;5009553;28;20333;-64
2022/03/31 06:07:32;;;;;;;0.60;0.60;;;3.70;99.90;3.40;99936.00;;;;5009637;28;20182;-64
2022/03/31 06:10:07;;;;;;;0.83;0.83;;;3.90;99.90;2.80;99862.00;;;;4993565;28;20194;-64
2022/03/31 06:12:39;;;;;;;1.63;1.53;;;3.80;99.90;2.70;99928.00;;;;5012259;28;20324;-64
2022/03/31 06:15:10;;;;;;;0.60;0.60;;;3.70;99.90;2.80;99929.00;;;;5029395;28;20182;-64
2022/03/31 06:17:46;;;;;;;0.87;0.87;;;3.80;99.90;3.10;99936.00;;;;5030189;28;20186;-64
2022/03/31 06:20:17;;;;;;;1.30;1.13;;;3.90;99.90;2.90;99880.00;;;;5019788;28;20187;-64
2022/03/31 06:22:46;;;;;;;1.23;0.97;;;3.90;99.90;3.10;99933.00;;;;5009593;28;20641;-64
2022/03/31 06:25:17;;;;;;;1.27;1.17;;;3.90;99.90;3.20;99944.00;;;;5009565;28;20573;-65
2022/03/31 06:27:49;;;;;;;2.83;1.00;;;4.00;99.90;3.10;99933.00;;;;5009505;28;20198;-64
2022/03/31 06:30:20;;;;;;;0.37;0.37;;;4.00;99.90;3.30;99931.00;;;;5009479;28;20641;-64
2022/03/31 06:32:52;;;;;;;0.43;0.43;;;4.10;99.90;3.30;99934.00;;;;5008523;28;20703;-64
2022/03/31 06:35:23;;;;;;;0.40;0.40;;;4.20;99.90;3.50;99931.00;;;;5010628;28;20291;-65
2022/03/31 06:37:52;;;;;;;0.90;0.90;;;4.30;99.90;3.30;99926.00;;;;5009305;28;20207;-65
2022/03/31 06:40:27;;;;;;;0.77;0.77;;;4.20;99.90;3.50;99925.00;;;;4993173;28;20237;-65
2022/03/31 06:42:58;;;;;;;0.50;0.50;;;4.30;99.90;3.50;99923.00;;;;5009435;28;20190;-65
2022/03/31 06:45:29;;;;;;;0.73;0.73;;;4.40;99.90;3.50;99917.00;;;;5010704;28;20187;-64
2022/03/31 06:48:03;;;;;;;0.97;0.97;;;4.40;99.90;3.60;99934.00;;;;5010090;28;20685;-64
2022/03/31 06:50:35;;;;;;;1.67;1.57;;;4.50;99.90;3.60;99938.00;;;;5010564;28;20196;-64
2022/03/31 06:53:06;;;;;;;0.40;0.40;;;4.50;99.90;3.80;99948.00;;;;5010764;28;20203;-65
2022/03/31 06:55:37;;;;;;;0.50;0.50;;;4.60;99.90;4.20;99933.00;;;;5012693;28;20585;-64
2022/03/31 06:58:05;;;;;;;2.10;1.43;;;4.80;99.90;4.30;99947.00;;;;5012499;28;20228;-65
2022/03/31 07:00:37;;;;;;;0.40;0.40;;;5.00;99.90;3.70;99948.00;;;;5012829;28;20204;-65
2022/03/31 07:03:08;;;;;;;0.30;0.30;;;4.80;99.90;3.70;99946.00;;;;5012292;28;20237;-64
2022/03/31 07:05:38;;;;;;;0.63;0.63;;;4.60;99.90;3.80;99953.00;;;;5014234;28;20171;-64
2022/03/31 07:08:10;;;;;;;0.50;0.50;;;4.70;99.90;3.90;99952.00;;;;5013889;28;20542;-64
2022/03/31 07:10:41;;;;;;;0.20;0.20;;;4.60;99.90;3.70;99954.00;;;;5012522;28;20638;-64
2022/03/31 07:13:15;;;;;;;0.83;0.83;;;4.50;99.90;3.40;99949.00;;;;5012537;28;20246;-65
2022/03/31 07:15:46;;;;;;;0.80;0.80;;;4.50;99.90;3.60;99964.00;;;;5012183;28;20278;-65
2022/03/31 07:18:19;;;;;;;0.30;0.30;;;4.40;99.90;3.40;99951.00;;;;5013527;28;20266;-65
2022/03/31 07:20:51;;;;;;;0.57;0.57;;;4.30;99.90;3.60;99932.00;;;;5013225;28;20258;-65
2022/03/31 07:23:26;;;;;;;1.73;1.33;;;4.40;99.90;3.20;99957.00;;;;5012529;28;20634;-65
2022/03/31 07:25:57;;;;;;;0.43;0.43;;;4.40;99.90;3.70;99947.00;;;;5028543;28;20179;-66
2022/03/31 07:28:26;;;;;;;1.90;1.20;;;4.50;99.90;3.60;99950.00;;;;4996095;28;20187;-65
2022/03/31 07:30:57;;;;;;;0.97;0.90;;;4.60;99.90;3.50;99949.00;;;;4995483;28;20535;-65
2022/03/31 07:33:28;;;;;;;0.50;0.50;;;4.60;99.90;3.50;99956.00;;;;5021473;28;20215;-64
2022/03/31 07:35:59;;;;;;;1.63;1.53;;;4.50;99.90;3.50;99966.00;;;;5027169;28;20186;-65
2022/03/31 07:38:30;;;;;;;0.57;0.50;;;4.50;99.90;3.80;99954.00;;;;5032185;28;20193;-65
2022/03/31 07:41:02;;;;;;;0.83;0.83;;;4.50;99.90;4.30;99965.00;;;;5031358;28;20194;-65
2022/03/31 07:43:34;;;;;;;0.80;0.80;;;4.80;99.90;3.80;99957.00;;;;5031974;28;20627;-65
2022/03/31 07:46:05;;;;;;;0.33;0.33;;;4.80;99.90;4.00;99948.00;;;;5031463;28;20215;-65
2022/03/31 07:48:37;;;;;;;1.13;1.03;;;4.80;99.90;3.70;99959.00;;;;5031944;28;20173;-65
2022/03/31 07:51:10;;;;;;;0.97;0.97;;;4.70;99.90;3.60;99960.00;;;;5031471;28;20194;-65
2022/03/31 07:53:39;;;;;;;1.07;1.07;;;4.60;99.90;4.00;99954.00;;;;5031323;28;20633;-65
2022/03/31 07:56:10;;;;;;;0.30;0.30;;;4.70;99.90;3.70;99967.00;;;;5025624;28;20282;-65
2022/03/31 07:58:41;;;;;;;1.03;1.00;;;4.60;99.90;4.00;99959.00;;;;5027150;28;20187;-65
2022/03/31 08:01:11;;;;;;;1.23;0.60;;;4.70;99.90;3.80;99935.00;;;;5114304;27;20194;-65
2022/03/31 08:03:44;;;;;;;0.40;0.40;;;4.70;99.90;3.90;99950.00;;;;5030918;28;20182;-66
2022/03/31 08:06:16;;;;;;;1.33;0.90;;;4.80;99.90;4.10;99950.00;;;;5031038;28;20599;-65
2022/03/31 08:08:44;;;;;;;0.80;0.80;;;4.90;99.90;4.10;99949.00;;;;5031224;28;20189;-65
2022/03/31 08:11:14;;;;;;;0.80;0.80;;;5.00;99.90;4.40;99935.00;;;;5031404;28;20203;-65
2022/03/31 08:13:45;;;;;;;1.37;1.03;;;5.10;99.90;4.70;99925.00;;;;5032219;28;20281;-68
2022/03/31 08:16:12;;;;;;;0.30;0.30;;;5.40;99.90;4.60;99948.00;;;;5030817;28;20175;-67
2022/03/31 08:18:41;;;;;;;1.07;0.90;;;5.50;99.90;4.80;99939.00;;;;5032458;28;20187;-66
2022/03/31 08:21:13;;;;;;;0.50;0.47;;;5.60;99.90;4.90;99937.00;;;;5032251;28;20183;-66
2022/03/31 08:23:47;;;;;;;0.70;0.70;;;5.70;99.90;5.00;99938.00;;;;5030044;28;20237;-66
2022/03/31 08:26:22;;;;;;;0.70;0.60;;;5.80;99.90;4.50;99943.00;;;;5030348;28;20644;-66
2022/03/31 08:28:56;;;;;;;0.70;0.70;;;5.60;99.90;4.50;99873.00;;;;5030716;28;20225;-67
2022/03/31 08:31:25;;;;;;;0.30;0.30;;;5.50;99.90;4.50;99924.00;;;;5030566;28;20207;-66
2022/03/31 08:33:54;;;;;;;0.60;0.60;;;5.40;99.90;4.50;99939.00;;;;5029891;28;20277;-64
2022/03/31 08:36:20;;;;;;;1.00;1.00;;;5.50;99.90;4.70;99933.00;;;;5047399;28;20187;-68
2022/03/31 08:38:51;;;;;;;1.03;1.03;;;5.70;99.90;5.30;99925.00;;;;5031752;28;20184;-66
2022/03/31 08:41:26;;;;;;;0.97;0.97;;;5.90;99.90;5.00;99927.00;;;;5032186;28;20657;-66
2022/03/31 08:43:52;;;;;;;0.80;0.80;;;6.00;99.90;5.30;99917.00;;;;5046527;28;20188;-66
2022/03/31 08:46:23;;;;;;;0.20;0.20;;;6.20;99.90;5.40;99926.00;;;;5046269;28;20191;-66
2022/03/31 08:48:49;;;;;;;1.50;1.40;;;6.30;99.90;5.20;99924.00;;;;5030742;28;20518;-67
2022/03/31 08:51:15;;;;;;;0.50;0.50;;;6.20;99.90;5.50;99917.00;;;;5013734;28;20233;-67
2022/03/31 08:53:42;;;;;;;0.30;0.30;;;6.40;99.90;5.20;99931.00;;;;5015207;28;20283;-67
2022/03/31 08:56:11;;;;;;;0.43;0.40;;;6.20;99.90;5.20;99917.00;;;;5014447;28;20186;-66
2022/03/31 08:58:46;;;;;;;0.40;0.40;;;6.30;99.90;5.20;99922.00;;;;5029816;28;20632;-66
2022/03/31 09:01:35;;;;;;;0.60;0.60;;;6.20;99.90;5.30;99921.00;;;;5030480;28;20229;-66
2022/03/31 09:04:08;;;;;;;0.43;0.43;;;6.20;99.90;5.50;99875.00;;;;5029991;28;20194;-67
2022/03/31 09:06:38;;;;;;;0.43;0.43;;;6.40;99.90;6.10;99877.00;;;;5031282;28;20185;-68
2022/03/31 09:09:07;;;;;;;1.10;1.07;;;6.70;99.90;5.80;99904.00;;;;5013760;28;20188;-67
2022/03/31 09:11:37;;;;;;;0.63;0.63;;;6.70;99.90;5.50;99924.00;;;;5013734;28;20239;-67
2022/03/31 09:14:05;;;;;;;0.60;0.60;;;6.60;99.90;5.80;99896.00;;;;5030136;28;20572;-69
2022/03/31 09:16:38;;;;;;;0.73;0.63;;;6.70;99.90;5.80;99927.00;;;;5012803;28;20523;-71
2022/03/31 09:19:10;;;;;;;0.70;0.70;;;6.80;99.90;6.00;99917.00;;;;5116888;27;20186;-70
2022/03/31 09:21:58;;;;;;;0.67;0.67;;;7.00;99.90;6.10;99912.00;;;;5031121;28;20188;-70
2022/03/31 09:24:27;;;;;;;1.20;1.20;;;7.00;99.90;6.20;99918.00;;;;5031306;28;20161;-69
2022/03/31 09:26:56;;;;;;;0.40;0.40;;;7.20;99.90;6.50;99904.00;;;;5029184;28;20174;-67
2022/03/31 09:29:30;;;;;;;0.90;0.90;;;7.30;99.90;7.20;99913.00;;;;5029179;28;20201;-71
2022/03/31 09:32:12;;;;;;;0.87;0.87;;;7.70;99.90;6.30;99911.00;;;;5031092;28;20312;-70
2022/03/31 09:34:49;;;;;;;3.37;0.60;;;7.40;99.90;6.50;99925.00;;;;5030013;28;20182;-70
2022/03/31 09:37:33;;;;;;;0.50;0.40;;;7.40;99.90;6.40;99875.00;;;;5028863;28;20590;-71
2022/03/31 09:39:59;;;;;;;1.07;1.00;;;7.30;99.90;6.80;99925.00;;;;5031390;28;20269;-71
2022/03/31 09:42:27;;;;;;;0.33;0.33;;;7.40;99.90;7.10;99917.00;;;;5028813;28;20274;-72
2022/03/31 09:45:00;;;;;;;1.73;0.57;;;7.70;99.90;7.10;99919.00;;;;5013010;28;20178;-71
2022/03/31 09:47:30;;;;;;;0.30;0.30;;;7.90;99.90;7.80;99915.00;;;;5029953;28;20183;-71
2022/03/31 09:49:56;;;;;;;0.20;0.20;;;8.20;99.90;7.90;99930.00;;;;5013142;28;20266;-68
2022/03/31 09:52:28;;;;;;;0.70;0.70;;;8.50;99.90;7.90;99940.00;;;;5029016;28;20263;-71
2022/03/31 09:54:56;;;;;;;0.40;0.40;;;8.50;99.90;7.60;99960.00;;;;5115935;27;20553;-71
2022/03/31 09:57:25;;;;;;;0.53;0.53;;;8.40;99.90;8.10;99950.00;;;;5029056;28;20183;-66
2022/03/31 09:59:55;;;;;;;2.57;1.47;;;8.70;99.90;7.00;99914.00;;;;5028398;28;20244;-69
2022/03/31 10:02:21;;;;;;;0.80;0.80;;;8.30;99.90;6.70;99951.00;;;;5028769;28;20725;-62
2022/03/31 10:04:47;;;;;;;0.27;0.27;;;7.80;99.90;7.60;99934.00;;;;5029082;28;20540;-64
2022/03/31 10:07:16;;;;;;;2.83;2.63;;;8.10;99.90;7.20;99946.00;;;;5030652;28;20167;-77
2022/03/31 10:09:43;;;;;;;0.70;0.70;;;8.10;99.90;8.00;99955.00;;;;5013247;28;20275;-71
2022/03/31 10:12:40;;;;;;;0.93;0.93;;;8.30;99.90;7.60;99947.00;;;;5012557;28;20217;-73
2022/03/31 10:15:13;;;;;;;1.23;1.17;;;8.40;99.90;6.80;99953.00;;;;5029495;28;20178;-73
2022/03/31 10:17:42;;;;;;;0.20;0.20;;;8.00;99.90;7.00;99943.00;;;;5028637;28;20680;-73
2022/03/31 10:20:13;;;;;;;0.63;0.40;;;7.80;99.90;7.30;99955.00;;;;5029149;28;20614;-73
2022/03/31 10:33:14;;;;;;;1.03;1.03;;;7.70;99.90;7.00;99919.00;;;;5125229;27;1323439;-73
2022/03/31 10:35:42;;;;;;;1.63;1.53;;;7.80;99.90;7.40;99958.00;;;;5107026;28;20183;-74
2022/03/31 10:38:23;;;;;;;0.50;0.50;;;8.10;99.90;7.60;99952.00;;;;5130333;28;20312;-69
2022/03/31 10:41:01;;;;;;;0.57;0.57;;;8.20;99.90;7.90;99978.00;;;;5131007;27;20679;-75
2022/03/31 10:43:31;;;;;;;0.73;0.73;;;8.50;99.90;9.10;99992.00;;;;5131459;27;20565;-73
2022/03/31 10:45:58;;;;;;;0.87;0.87;;;9.20;99.90;9.30;100004.00;;;;5130364;28;20527;-72
2022/03/31 10:48:31;;;;;;;11.73;1.00;;;9.60;99.90;9.20;100022.00;;;;5130193;28;20167;-73
2022/03/31 10:51:10;;;;;;;0.40;0.40;;;9.80;99.90;8.90;100024.00;;;;5130849;28;20161;-72
2022/03/31 10:53:39;;;;;;;0.67;0.43;;;9.40;99.90;8.90;99968.00;;;;5130596;27;20178;-71
2022/03/31 10:56:24;;;;;;;0.30;0.30;;;9.40;99.90;8.90;100010.00;;;;5112737;28;20191;-72
2022/03/31 10:58:54;;;;;;;9.13;1.43;;;9.30;99.90;9.20;100016.00;;;;5113282;28;20189;-77
2022/03/31 11:01:26;;;;;;;1.33;1.23;;;9.40;99.90;8.70;100019.00;;;;5131456;27;20184;-70
2022/03/31 11:04:07;;;;;;;0.30;0.30;;;9.30;99.90;9.50;100020.00;;;;5130862;27;20180;-72
2022/03/31 11:06:33;;;;;;;1.70;1.47;;;9.50;99.90;9.10;99955.00;;;;5129474;28;20207;-73
2022/03/31 11:09:01;;;;;;;0.50;0.50;;;9.50;99.90;8.70;100010.00;;;;5112292;28;20182;-73
2022/03/31 11:11:29;;;;;;;1.10;1.00;;;9.30;99.90;8.20;99999.00;;;;5129786;28;20206;-73
2022/03/31 11:13:59;;;;;;;0.70;0.70;;;8.90;99.90;8.50;99968.00;;;;5130564;27;20184;-73
2022/03/31 11:16:38;;;;;;;1.17;1.07;;;8.80;99.90;8.50;99958.00;;;;5129998;28;20192;-73
2022/03/31 11:19:05;;;;;;;1.23;1.07;;;8.90;99.90;8.50;100002.00;;;;5128398;28;20264;-73
2022/03/31 11:21:37;;;;;;;1.20;0.90;;;9.10;99.90;9.20;99997.00;;;;5128234;27;20332;-73
2022/03/31 11:24:05;;;;;;;2.63;1.50;;;9.40;99.90;8.50;100003.00;;;;5130419;27;20177;-73
2022/03/31 11:26:35;;;;;;;1.53;1.43;;;9.20;99.90;8.00;99988.00;;;;5128955;28;20187;-73
2022/03/31 11:29:05;;;;;;;0.30;0.30;;;8.80;99.90;8.50;100004.00;;;;5129384;28;20691;-73
2022/03/31 11:31:31;;;;;;;0.20;0.20;;;8.80;99.90;9.10;100003.00;;;;5129607;28;20662;-73
2022/03/31 11:34:00;;;;;;;0.97;0.87;;;9.00;99.90;8.60;100017.00;;;;5111866;28;20192;-73
2022/03/31 11:36:37;;;;;;;0.10;0.10;;;9.00;99.90;9.20;100020.00;;;;5112457;28;20179;-73
2022/03/31 11:39:04;;;;;;;0.43;0.43;;;9.10;99.90;8.80;100008.00;;;;5128203;28;20220;-73
2022/03/31 11:41:41;;;;;;;0.30;0.30;;;9.00;99.90;9.20;100014.00;;;;5129007;28;20212;-73
2022/03/31 11:44:08;;;;;;;0.10;0.10;;;9.20;99.90;9.50;100031.00;;;;5118290;27;20176;-73